Time;durP1;ratioP1;P1;durP2;ratioP2;P2;SDS_P1;SDS_P2;PMS_P1;PMS_P2;Temp;Humidity;BMP_temperature;BMP_pressure;BME280_temperature;BME280_humidity;BME280_pressure;Samples;Min_cycle;Max_cycle;Signal;HPM_P1;HPM_P2
2023/07/21 04:02:47;;;;;;;0.60;0.10;;;19.50;1.00;;;;;;5085666;23;20496;-71
2023/07/21 04:05:15;;;;;;;0.60;0.10;;;19.40;1.00;;;;;;5027961;28;20468;-70
2023/07/21 04:07:43;;;;;;;0.60;0.20;;;19.40;1.00;;;;;;5029477;28;20440;-71
2023/07/21 04:10:12;;;;;;;0.60;0.10;;;19.40;1.00;;;;;;5023537;28;20459;-70
2023/07/21 04:12:40;;;;;;;0.60;0.20;;;19.50;1.00;;;;;;5036868;28;20466;-70
2023/07/21 04:15:09;;;;;;;0.60;0.13;;;19.50;1.00;;;;;;5035193;28;20491;-70
2023/07/21 04:17:36;;;;;;;0.60;0.10;;;19.60;1.00;;;;;;5036757;28;20518;-72
2023/07/21 04:20:09;;;;;;;0.60;0.10;;;19.70;1.00;;;;;;5020127;28;20476;-71
2023/07/21 04:22:37;;;;;;;0.60;0.20;;;19.60;1.00;;;;;;5028615;28;20511;-71
2023/07/21 04:25:06;;;;;;;0.60;0.20;;;19.60;1.00;;;;;;5030159;28;20456;-70
2023/07/21 04:27:35;;;;;;;0.60;0.10;;;19.60;1.00;;;;;;5028500;28;20459;-71
2023/07/21 04:30:03;;;;;;;0.60;0.10;;;19.50;1.00;;;;;;5033539;28;20495;-70
2023/07/21 04:32:31;;;;;;;0.70;0.57;;;19.50;1.00;;;;;;5011234;28;20464;-71
2023/07/21 04:34:59;;;;;;;0.60;0.10;;;19.50;1.00;;;;;;5015098;28;20928;-70
2023/07/21 04:37:33;;;;;;;0.60;0.10;;;19.40;1.00;;;;;;5014538;28;21038;-70
2023/07/21 04:40:01;;;;;;;0.60;0.10;;;19.40;1.00;;;;;;5004318;28;21048;-71
2023/07/21 04:42:28;;;;;;;0.60;0.20;;;19.40;1.00;;;;;;5003331;28;20969;-71
2023/07/21 04:44:56;;;;;;;0.60;0.10;;;19.20;1.00;;;;;;5014165;28;20440;-70
2023/07/21 04:47:24;;;;;;;0.60;0.10;;;19.20;1.00;;;;;;5014011;28;20436;-72
2023/07/21 04:49:53;;;;;;;0.60;0.30;;;19.10;1.00;;;;;;5013824;28;21134;-71
2023/07/21 04:52:22;;;;;;;0.60;0.20;;;19.00;1.00;;;;;;5013267;28;20499;-70
2023/07/21 04:54:51;;;;;;;0.60;0.10;;;19.00;1.00;;;;;;5013703;28;20489;-70
2023/07/21 04:57:18;;;;;;;0.60;0.10;;;19.00;1.00;;;;;;5013621;28;20566;-71
2023/07/21 04:59:46;;;;;;;0.60;0.20;;;19.00;1.00;;;;;;5013457;28;20475;-73
2023/07/21 05:02:14;;;;;;;0.60;0.20;;;19.10;1.00;;;;;;5012653;28;20487;-71
2023/07/21 05:04:42;;;;;;;0.60;0.10;;;19.20;1.00;;;;;;5013143;28;20506;-71
2023/07/21 05:07:10;;;;;;;0.60;0.10;;;19.30;1.00;;;;;;5013346;28;20537;-71
2023/07/21 05:09:38;;;;;;;0.60;0.23;;;19.30;1.00;;;;;;5013339;28;20458;-71
2023/07/21 05:12:08;;;;;;;0.60;0.10;;;;;;;;;;5015477;28;20546;-71
2023/07/21 05:14:36;;;;;;;0.60;0.10;;;19.10;1.00;;;;;;5019291;28;20483;-71
2023/07/21 05:17:04;;;;;;;0.70;0.30;;;19.00;1.00;;;;;;5019367;28;20479;-70
2023/07/21 05:19:32;;;;;;;0.80;0.53;;;18.90;1.00;;;;;;5015171;28;20466;-71
2023/07/21 05:22:01;;;;;;;0.60;0.10;;;18.90;1.00;;;;;;5013850;28;20469;-72
2023/07/21 05:24:28;;;;;;;0.60;0.20;;;18.80;1.00;;;;;;5013361;28;20531;-70
2023/07/21 05:26:56;;;;;;;0.60;0.10;;;18.70;1.00;;;;;;5013446;28;20448;-71
2023/07/21 05:29:26;;;;;;;0.60;0.10;;;18.60;1.00;;;;;;5013211;28;20451;-71
2023/07/21 05:31:54;;;;;;;0.60;0.20;;;;;;;;;;5013029;28;20495;-71
2023/07/21 05:34:22;;;;;;;1.70;0.50;;;18.60;1.00;;;;;;5013009;28;20528;-66
2023/07/21 05:36:50;;;;;;;0.60;0.10;;;18.60;1.00;;;;;;5012198;28;20467;-74
2023/07/21 05:39:17;;;;;;;0.60;0.10;;;18.60;1.00;;;;;;5027991;28;20439;-67
2023/07/21 05:41:45;;;;;;;0.60;0.10;;;18.70;1.00;;;;;;5014754;28;20465;-72
2023/07/21 05:44:14;;;;;;;0.60;0.10;;;18.70;1.00;;;;;;4992777;28;20487;-71
2023/07/21 05:46:44;;;;;;;0.60;0.10;;;18.80;1.00;;;;;;4993612;28;20445;-74
2023/07/21 05:49:14;;;;;;;0.60;0.20;;;18.90;1.00;;;;;;4993174;28;20543;-71
2023/07/21 05:51:42;;;;;;;0.60;0.10;;;19.00;1.00;;;;;;4993136;28;20464;-71
2023/07/21 05:54:10;;;;;;;0.60;0.10;;;19.00;1.00;;;;;;5029547;28;20442;-72
2023/07/21 05:56:39;;;;;;;0.60;0.13;;;19.00;1.00;;;;;;5032720;28;20493;-72
2023/07/21 05:59:07;;;;;;;0.60;0.10;;;19.00;1.00;;;;;;5032238;28;20525;-72
2023/07/21 06:01:36;;;;;;;0.60;0.10;;;19.10;1.00;;;;;;5032179;28;20553;-73
2023/07/21 06:04:06;;;;;;;0.60;0.20;;;19.00;1.00;;;;;;5032525;28;20541;-71
2023/07/21 06:06:34;;;;;;;0.60;0.20;;;19.00;1.00;;;;;;5031851;28;20439;-72
2023/07/21 06:09:02;;;;;;;0.60;0.10;;;19.00;1.00;;;;;;5031743;28;20455;-74
2023/07/21 06:11:30;;;;;;;0.60;0.20;;;19.00;1.00;;;;;;5020943;28;20543;-71
2023/07/21 06:13:58;;;;;;;0.60;0.20;;;18.90;1.00;;;;;;5017212;28;20452;-72
2023/07/21 06:16:26;;;;;;;0.60;0.10;;;18.80;1.00;;;;;;5017718;28;20477;-72
2023/07/21 06:18:54;;;;;;;0.60;0.10;;;19.00;1.00;;;;;;5013292;28;20483;-73
2023/07/21 06:21:23;;;;;;;0.60;0.20;;;19.00;1.00;;;;;;5012682;28;20550;-72
2023/07/21 06:23:53;;;;;;;0.60;0.10;;;19.10;1.00;;;;;;5012193;28;20440;-72
2023/07/21 06:26:21;;;;;;;0.60;0.13;;;;;;;;;;5021874;28;20437;-71
2023/07/21 06:28:51;;;;;;;2.10;2.00;;;19.10;1.00;;;;;;5019202;28;20437;-73
2023/07/21 06:31:18;;;;;;;0.70;0.43;;;19.10;1.00;;;;;;5012702;28;20536;-73
2023/07/21 06:33:47;;;;;;;0.60;0.10;;;19.10;1.00;;;;;;5017259;28;20440;-72
2023/07/21 06:36:15;;;;;;;0.60;0.10;;;19.10;1.00;;;;;;5014143;28;20535;-72
2023/07/21 06:38:44;;;;;;;0.60;0.10;;;19.20;1.00;;;;;;5012683;28;20574;-72
2023/07/21 06:41:13;;;;;;;0.60;0.10;;;;;;;;;;5012975;28;20474;-73
2023/07/21 06:43:40;;;;;;;0.60;0.10;;;19.20;1.00;;;;;;5013953;28;20470;-72
2023/07/21 06:46:08;;;;;;;0.60;0.10;;;19.20;1.00;;;;;;5012576;28;20530;-72
2023/07/21 06:48:36;;;;;;;0.60;0.10;;;19.20;1.00;;;;;;5012374;28;20446;-73
2023/07/21 06:51:04;;;;;;;0.60;0.10;;;;;;;;;;5011646;28;20486;-74
2023/07/21 06:53:32;;;;;;;0.60;0.10;;;;;;;;;;5021567;28;20530;-73
2023/07/21 06:56:02;;;;;;;0.60;0.20;;;19.40;1.00;;;;;;5034863;28;20454;-73
2023/07/21 06:58:29;;;;;;;0.70;0.40;;;19.50;1.00;;;;;;5026278;28;20479;-72
2023/07/21 07:01:00;;;;;;;0.60;0.20;;;19.60;1.00;;;;;;4995223;28;20554;-72
2023/07/21 07:03:29;;;;;;;0.60;0.10;;;;;;;;;;5002841;28;20454;-71
2023/07/21 07:05:59;;;;;;;0.60;0.10;;;19.70;1.00;;;;;;5018801;28;20475;-71
2023/07/21 07:08:27;;;;;;;0.60;0.10;;;19.80;1.00;;;;;;5020113;28;20445;-72
2023/07/21 07:10:55;;;;;;;0.60;0.10;;;;;;;;;;5020213;28;20559;-74
2023/07/21 07:13:24;;;;;;;0.60;0.20;;;;;;;;;;5016624;28;20462;-74
2023/07/21 07:15:54;;;;;;;0.60;0.10;;;20.20;1.00;;;;;;5003757;28;20518;-72
2023/07/21 07:18:22;;;;;;;0.60;0.10;;;20.40;1.00;;;;;;5003821;28;20854;-71
2023/07/21 07:20:51;;;;;;;0.60;0.13;;;20.40;1.00;;;;;;4995448;28;20478;-72
2023/07/21 07:23:19;;;;;;;1.00;0.90;;;20.50;1.00;;;;;;4996110;28;20452;-72
2023/07/21 07:25:48;;;;;;;0.60;0.13;;;20.50;1.00;;;;;;5015171;28;20445;-72
2023/07/21 07:28:17;;;;;;;0.60;0.10;;;20.50;1.00;;;;;;5015423;28;20452;-72
2023/07/21 07:30:47;;;;;;;0.87;0.30;;;20.60;1.00;;;;;;5015373;28;20452;-74
2023/07/21 07:33:15;;;;;;;0.60;0.20;;;20.60;1.00;;;;;;5014863;28;20454;-72
2023/07/21 07:35:50;;;;;;;0.60;0.10;;;20.60;1.00;;;;;;4995958;28;20481;-73
2023/07/21 07:38:26;;;;;;;0.60;0.10;;;20.70;1.00;;;;;;4998640;28;20608;-72
2023/07/21 07:40:55;;;;;;;0.60;0.10;;;20.70;1.00;;;;;;5022790;28;20467;-72
2023/07/21 07:43:23;;;;;;;1.33;1.23;;;20.80;1.00;;;;;;5033820;28;20453;-72
2023/07/21 07:45:52;;;;;;;0.60;0.27;;;20.70;1.00;;;;;;5015539;28;20440;-71
2023/07/21 07:48:22;;;;;;;0.60;0.20;;;;;;;;;;5015031;28;20444;-72
2023/07/21 07:50:51;;;;;;;0.60;0.17;;;20.70;1.00;;;;;;5014191;28;21236;-74
2023/07/21 07:53:19;;;;;;;0.60;0.10;;;20.70;1.00;;;;;;5014239;28;20436;-75
2023/07/21 07:55:47;;;;;;;0.60;0.20;;;20.70;1.00;;;;;;4994764;28;20465;-73
2023/07/21 07:58:14;;;;;;;0.60;0.20;;;20.80;1.00;;;;;;4994622;28;20532;-73
2023/07/21 08:00:47;;;;;;;0.80;0.20;;;;;;;;;;4995022;28;20501;-73
2023/07/21 08:03:16;;;;;;;0.60;0.20;;;20.80;1.00;;;;;;4994153;28;20462;-75
2023/07/21 08:05:44;;;;;;;0.60;0.10;;;20.80;1.00;;;;;;4999153;28;20507;-70
2023/07/21 08:08:13;;;;;;;0.60;0.20;;;;;;;;;;5013923;28;20508;-72
2023/07/21 08:10:42;;;;;;;1.13;0.20;;;20.90;1.00;;;;;;5013005;28;20475;-71
2023/07/21 08:13:10;;;;;;;0.60;0.10;;;;;;;;;;4999540;28;20872;-70
2023/07/21 08:15:40;;;;;;;0.60;0.10;;;21.00;1.00;;;;;;5013776;28;20455;-69
2023/07/21 08:18:08;;;;;;;0.60;0.10;;;21.20;1.00;;;;;;5013947;28;21551;-69
2023/07/21 08:20:39;;;;;;;0.60;0.10;;;21.30;1.00;;;;;;5014029;28;20491;-70
2023/07/21 08:23:07;;;;;;;0.60;0.10;;;;;;;;;;5004306;28;20458;-70
2023/07/21 08:25:50;;;;;;;0.60;0.20;;;;;;;;;;4995736;28;20477;-68
2023/07/21 08:28:18;;;;;;;0.60;0.10;;;21.50;1.00;;;;;;4994487;28;20448;-71
2023/07/21 08:30:46;;;;;;;0.83;0.20;;;;;;;;;;5002957;28;20444;-72
2023/07/21 08:33:26;;;;;;;0.60;0.20;;;;;;;;;;5022696;28;20444;-72
2023/07/21 08:35:55;;;;;;;0.60;0.20;;;21.80;1.00;;;;;;5020690;28;20461;-73
2023/07/21 08:38:24;;;;;;;0.60;0.20;;;;;;;;;;5016439;28;20941;-72
2023/07/21 08:41:02;;;;;;;0.60;0.10;;;21.90;1.00;;;;;;5009715;28;20511;-72
2023/07/21 08:43:30;;;;;;;0.60;0.10;;;22.00;1.00;;;;;;4995057;28;20438;-72
2023/07/21 08:46:01;;;;;;;0.60;0.20;;;22.00;1.00;;;;;;4993339;28;21002;-72
2023/07/21 08:48:29;;;;;;;0.60;0.10;;;22.00;1.00;;;;;;4993995;28;20543;-72
2023/07/21 08:51:00;;;;;;;0.60;0.10;;;22.10;1.00;;;;;;4992460;28;20899;-72
2023/07/21 08:53:29;;;;;;;0.60;0.10;;;22.10;1.00;;;;;;4993961;28;20443;-72
2023/07/21 08:55:58;;;;;;;0.60;0.20;;;22.10;1.00;;;;;;4994153;28;20453;-73
2023/07/21 08:58:28;;;;;;;0.60;0.20;;;22.10;1.00;;;;;;5014218;28;20511;-72
2023/07/21 09:00:57;;;;;;;0.60;0.20;;;22.10;1.00;;;;;;5021967;28;20482;-71
2023/07/21 09:03:27;;;;;;;0.63;0.23;;;22.10;1.00;;;;;;5021664;28;20439;-71
2023/07/21 09:05:57;;;;;;;0.60;0.20;;;22.00;1.00;;;;;;5021121;28;20790;-71
2023/07/21 09:08:29;;;;;;;0.70;0.10;;;22.00;1.00;;;;;;5026839;28;20445;-70
2023/07/21 09:11:00;;;;;;;0.60;0.10;;;22.00;1.00;;;;;;5012526;28;20540;-70
2023/07/21 09:13:29;;;;;;;0.60;0.10;;;22.00;1.00;;;;;;5012336;28;20989;-72
2023/07/21 09:15:59;;;;;;;0.60;0.20;;;22.10;1.00;;;;;;5013253;28;20448;-72
2023/07/21 09:18:28;;;;;;;0.60;0.10;;;;;;;;;;4999876;28;20568;-72
2023/07/21 09:20:56;;;;;;;0.60;0.20;;;22.00;1.00;;;;;;4997884;28;20560;-70
2023/07/21 09:23:29;;;;;;;0.60;0.10;;;22.00;1.00;;;;;;5013389;28;20454;-71
2023/07/21 09:25:59;;;;;;;0.60;0.10;;;22.00;1.00;;;;;;5019161;28;20952;-71
2023/07/21 09:28:41;;;;;;;0.60;0.20;;;22.00;1.00;;;;;;5008327;28;20455;-71
2023/07/21 09:31:09;;;;;;;0.60;0.10;;;22.00;1.00;;;;;;4992388;28;20478;-72
2023/07/21 09:33:42;;;;;;;0.60;0.10;;;22.00;1.00;;;;;;5006366;28;20966;-71
2023/07/21 09:36:12;;;;;;;0.60;0.20;;;22.10;1.00;;;;;;5012012;28;20446;-71
2023/07/21 09:38:42;;;;;;;0.60;0.20;;;22.10;1.00;;;;;;5023496;28;20889;-71
2023/07/21 09:41:12;;;;;;;0.60;0.20;;;22.10;1.00;;;;;;5019927;28;20485;-72
2023/07/21 09:43:41;;;;;;;0.60;0.10;;;22.20;1.00;;;;;;5016614;28;20455;-71
2023/07/21 09:46:10;;;;;;;0.67;0.23;;;22.20;1.00;;;;;;5018527;28;20943;-71
2023/07/21 09:48:41;;;;;;;0.60;0.20;;;22.30;1.00;;;;;;5020715;28;20532;-71
2023/07/21 09:51:11;;;;;;;0.60;0.10;;;22.30;1.00;;;;;;5020008;28;20461;-71
2023/07/21 09:53:42;;;;;;;0.60;0.10;;;22.40;1.00;;;;;;5022461;28;20548;-71
2023/07/21 09:56:12;;;;;;;0.60;0.10;;;22.50;1.00;;;;;;5027545;28;20448;-72
2023/07/21 09:58:46;;;;;;;0.60;0.10;;;22.60;1.00;;;;;;5032179;28;20456;-73
2023/07/21 10:01:15;;;;;;;0.70;0.20;;;;;;;;;;5027115;28;20495;-74
2023/07/21 10:03:45;;;;;;;0.67;0.20;;;22.70;1.00;;;;;;5012653;28;21117;-71
2023/07/21 10:06:14;;;;;;;0.60;0.10;;;22.80;1.00;;;;;;5011803;28;20441;-71
2023/07/21 10:08:45;;;;;;;0.70;0.30;;;22.80;1.00;;;;;;5012354;28;20527;-72
2023/07/21 10:11:14;;;;;;;0.60;0.20;;;22.90;1.00;;;;;;5006710;28;20483;-72
2023/07/21 10:13:45;;;;;;;0.60;0.10;;;;;;;;;;5009542;28;20520;-71
2023/07/21 10:16:14;;;;;;;0.70;0.10;;;22.80;1.00;;;;;;5012376;28;20481;-73
2023/07/21 10:19:06;;;;;;;0.60;0.20;;;22.90;1.00;;;;;;5011924;28;20458;-73
2023/07/21 10:21:50;;;;;;;0.60;0.10;;;23.00;1.00;;;;;;5011151;28;20495;-72
2023/07/21 10:24:26;;;;;;;0.60;0.10;;;23.00;1.00;;;;;;5000577;28;20454;-74
2023/07/21 10:26:56;;;;;;;0.70;0.17;;;23.10;1.00;;;;;;5012001;28;20438;-71
2023/07/21 10:29:24;;;;;;;0.60;0.20;;;23.10;1.00;;;;;;5008129;28;20496;-70
2023/07/21 10:31:53;;;;;;;0.60;0.10;;;23.10;1.00;;;;;;5012100;28;20454;-72
2023/07/21 10:34:25;;;;;;;0.60;0.10;;;23.20;1.00;;;;;;5001885;28;20450;-72
2023/07/21 10:36:58;;;;;;;0.70;0.10;;;23.10;1.00;;;;;;4991985;28;20489;-74
2023/07/21 10:39:31;;;;;;;0.70;0.20;;;23.10;1.00;;;;;;4991811;28;20458;-73
2023/07/21 10:42:01;;;;;;;0.70;0.10;;;23.10;1.00;;;;;;5002546;28;20573;-71
2023/07/21 10:44:37;;;;;;;0.70;0.10;;;23.10;1.00;;;;;;5011966;28;20447;-72
2023/07/21 10:47:05;;;;;;;0.70;0.10;;;23.00;1.00;;;;;;5012297;28;20461;-72
2023/07/21 10:49:34;;;;;;;0.70;0.20;;;23.00;1.00;;;;;;5012804;28;20974;-72
2023/07/21 10:52:04;;;;;;;2.03;0.73;;;26.80;1.00;;;;;;5011673;28;20476;-73
2023/07/21 10:54:33;;;;;;;0.60;0.20;;;22.90;1.00;;;;;;5012168;28;20552;-73
2023/07/21 10:57:02;;;;;;;0.60;0.10;;;;;;;;;;5012712;28;21060;-73
2023/07/21 10:59:31;;;;;;;0.70;0.20;;;22.70;1.00;;;;;;5012366;28;20461;-73
2023/07/21 11:01:59;;;;;;;0.70;0.30;;;;;;;;;;5008621;28;20548;-73
2023/07/21 11:04:28;;;;;;;0.60;0.10;;;22.70;1.00;;;;;;5001499;28;20454;-74
2023/07/21 11:06:57;;;;;;;0.60;0.10;;;22.70;1.00;;;;;;4992298;28;20549;-73
2023/07/21 11:09:27;;;;;;;0.63;0.10;;;22.80;1.00;;;;;;4991730;28;20491;-72
2023/07/21 11:11:57;;;;;;;0.60;0.10;;;22.90;1.00;;;;;;5003578;28;20471;-72
2023/07/21 11:14:27;;;;;;;0.60;0.20;;;22.90;1.00;;;;;;4991335;28;20456;-73
2023/07/21 11:16:56;;;;;;;0.60;0.10;;;22.90;1.00;;;;;;4992352;28;20451;-73
2023/07/21 11:19:25;;;;;;;0.60;0.10;;;23.00;1.00;;;;;;4992327;28;20470;-73
2023/07/21 11:21:55;;;;;;;0.60;0.10;;;23.00;1.00;;;;;;4991883;28;20482;-73
2023/07/21 11:24:28;;;;;;;0.70;0.10;;;23.00;1.00;;;;;;4991509;28;20447;-73
2023/07/21 11:27:03;;;;;;;0.67;0.23;;;23.80;1.00;;;;;;4991404;28;20959;-73
2023/07/21 11:29:37;;;;;;;0.93;0.87;;;23.00;1.00;;;;;;4991769;28;20463;-74
2023/07/21 11:32:16;;;;;;;1.00;0.87;;;;;;;;;;4991418;28;20468;-72
2023/07/21 11:34:44;;;;;;;0.70;0.20;;;22.50;1.00;;;;;;4991354;28;20478;-72
2023/07/21 11:37:15;;;;;;;0.60;0.20;;;22.60;1.00;;;;;;4991648;28;20527;-73
2023/07/21 11:39:43;;;;;;;0.60;0.10;;;22.70;1.00;;;;;;4991647;28;20965;-72
2023/07/21 11:42:12;;;;;;;0.60;0.10;;;22.80;1.00;;;;;;4992918;28;20486;-73
2023/07/21 11:44:40;;;;;;;0.60;0.10;;;22.90;1.00;;;;;;4995708;28;20485;-74
2023/07/21 11:47:10;;;;;;;0.60;0.10;;;23.00;1.00;;;;;;5000369;28;20446;-72
2023/07/21 11:49:39;;;;;;;0.60;0.20;;;23.00;1.00;;;;;;5004257;28;20538;-72
2023/07/21 11:52:08;;;;;;;0.60;0.10;;;23.10;1.00;;;;;;5008496;28;20570;-74
2023/07/21 11:54:40;;;;;;;0.60;0.10;;;23.00;1.00;;;;;;5014893;28;20533;-73
2023/07/21 11:57:10;;;;;;;0.60;0.10;;;22.90;1.00;;;;;;5010027;28;20445;-72
2023/07/21 11:59:39;;;;;;;0.60;0.10;;;22.80;1.00;;;;;;5014160;28;20553;-73
2023/07/21 12:02:09;;;;;;;0.60;0.10;;;22.80;1.00;;;;;;5002350;28;20477;-73
2023/07/21 12:04:38;;;;;;;0.60;0.20;;;22.80;1.00;;;;;;5005149;28;20442;-73
2023/07/21 12:07:07;;;;;;;0.70;0.20;;;22.60;1.00;;;;;;4999834;28;20452;-73
2023/07/21 12:09:35;;;;;;;0.60;0.10;;;22.60;1.00;;;;;;5002905;28;20529;-73
2023/07/21 12:12:05;;;;;;;0.70;0.30;;;22.60;1.00;;;;;;4999069;28;20461;-72
2023/07/21 12:14:33;;;;;;;0.60;0.10;;;;;;;;;;4985846;28;20452;-74
2023/07/21 12:17:03;;;;;;;0.70;0.10;;;22.50;1.00;;;;;;4993435;28;20522;-73
2023/07/21 12:19:32;;;;;;;0.60;0.13;;;;;;;;;;4974807;28;20812;-72
2023/07/21 12:22:00;;;;;;;0.60;0.17;;;22.60;1.00;;;;;;5007803;28;20571;-73
2023/07/21 12:24:28;;;;;;;0.60;0.20;;;;;;;;;;5011863;28;20541;-74
2023/07/21 12:26:57;;;;;;;0.60;0.10;;;;;;;;;;4996196;28;20446;-73
2023/07/21 12:29:25;;;;;;;0.60;0.10;;;;;;;;;;4999094;28;20456;-73
2023/07/21 12:32:13;;;;;;;0.60;0.20;;;22.50;1.00;;;;;;4991867;28;20473;-73
2023/07/21 12:34:42;;;;;;;0.60;0.20;;;22.50;1.00;;;;;;5002043;28;20513;-73
2023/07/21 12:37:10;;;;;;;0.60;0.20;;;;;;;;;;4992907;28;20450;-73
2023/07/21 12:39:39;;;;;;;0.60;0.10;;;;;;;;;;4984483;28;20442;-73
2023/07/21 12:42:08;;;;;;;0.70;0.20;;;22.20;1.00;;;;;;5001001;28;20592;-73
2023/07/21 12:44:36;;;;;;;0.60;0.20;;;22.10;1.00;;;;;;5003263;28;20613;-73
2023/07/21 12:47:05;;;;;;;0.60;0.20;;;22.10;1.00;;;;;;5004490;28;20446;-74
2023/07/21 12:49:34;;;;;;;0.60;0.10;;;22.10;1.00;;;;;;4998353;28;20449;-73
2023/07/21 12:52:02;;;;;;;0.60;0.10;;;22.10;1.00;;;;;;4991782;28;20592;-72
2023/07/21 12:54:30;;;;;;;0.60;0.20;;;22.00;1.00;;;;;;5011203;28;20442;-73
2023/07/21 12:56:59;;;;;;;0.60;0.10;;;22.00;1.00;;;;;;5005696;28;20466;-73
2023/07/21 12:59:27;;;;;;;0.60;0.20;;;;;;;;;;4999110;28;20456;-73
2023/07/21 13:01:55;;;;;;;0.60;0.20;;;21.90;1.00;;;;;;4987976;28;21007;-73
2023/07/21 13:04:23;;;;;;;1.07;0.60;;;21.80;1.00;;;;;;5005631;28;20452;-72
2023/07/21 13:06:54;;;;;;;0.60;0.10;;;21.70;1.00;;;;;;5012168;28;20474;-73
2023/07/21 13:09:23;;;;;;;1.50;1.40;;;21.50;1.00;;;;;;5011812;28;20449;-74
2023/07/21 13:11:53;;;;;;;0.60;0.20;;;21.40;1.00;;;;;;5004680;28;20508;-73
2023/07/21 13:14:21;;;;;;;1.83;1.70;;;21.30;1.00;;;;;;5012315;28;20528;-73
2023/07/21 13:16:49;;;;;;;0.60;0.10;;;21.30;1.00;;;;;;5012112;28;20500;-73
2023/07/21 13:19:16;;;;;;;0.83;0.63;;;21.40;1.00;;;;;;5004878;28;20541;-75
2023/07/21 13:21:45;;;;;;;0.60;0.20;;;;;;;;;;5007427;28;20930;-74
2023/07/21 13:24:14;;;;;;;0.60;0.20;;;21.50;1.00;;;;;;5011403;28;20545;-73
2023/07/21 13:26:42;;;;;;;0.60;0.10;;;21.50;1.00;;;;;;5007998;28;20559;-74
2023/07/21 13:29:12;;;;;;;0.60;0.10;;;;;;;;;;5004745;28;20456;-74
2023/07/21 13:31:40;;;;;;;0.60;0.20;;;21.50;1.00;;;;;;5006332;28;20534;-73
2023/07/21 13:34:07;;;;;;;0.80;0.50;;;21.50;1.00;;;;;;5007029;28;20893;-73
2023/07/21 13:36:36;;;;;;;0.60;0.10;;;;;;;;;;5009622;28;20456;-73
2023/07/21 13:39:04;;;;;;;0.60;0.17;;;;;;;;;;5005212;28;20536;-73
2023/07/21 13:41:33;;;;;;;0.60;0.20;;;21.30;1.00;;;;;;5003300;28;20503;-73
2023/07/21 13:44:01;;;;;;;0.60;0.10;;;21.30;1.00;;;;;;5011753;28;20445;-73
2023/07/21 13:46:30;;;;;;;1.63;0.70;;;21.30;1.00;;;;;;5003569;28;20488;-73
2023/07/21 13:48:58;;;;;;;0.60;0.10;;;21.30;1.00;;;;;;5012109;28;20531;-73
2023/07/21 13:51:26;;;;;;;0.60;0.20;;;21.20;1.00;;;;;;5007827;28;21143;-73
2023/07/21 13:53:54;;;;;;;0.60;0.10;;;21.10;1.00;;;;;;5011820;28;20547;-73
2023/07/21 13:56:23;;;;;;;1.10;0.43;;;21.10;1.00;;;;;;5011707;28;20937;-72
2023/07/21 13:58:54;;;;;;;0.67;0.30;;;21.00;1.00;;;;;;5004210;28;21001;-72
2023/07/21 14:01:22;;;;;;;0.60;0.10;;;;;;;;;;4998899;28;21057;-72
2023/07/21 14:03:51;;;;;;;0.60;0.20;;;;;;;;;;4990684;28;20573;-72
2023/07/21 14:06:19;;;;;;;0.80;0.73;;;21.70;1.00;;;;;;4992245;28;20472;-72
2023/07/21 14:08:47;;;;;;;0.60;0.10;;;20.60;1.00;;;;;;4994451;28;20498;-71
2023/07/21 14:11:15;;;;;;;0.70;0.60;;;20.60;1.00;;;;;;5009901;28;20846;-71
2023/07/21 14:13:42;;;;;;;0.60;0.20;;;20.50;1.00;;;;;;5011336;28;20527;-72
2023/07/21 14:16:12;;;;;;;0.60;0.10;;;20.60;1.00;;;;;;5006552;28;20459;-71
2023/07/21 14:18:40;;;;;;;0.60;0.10;;;;;;;;;;5006918;28;20441;-71
2023/07/21 14:21:08;;;;;;;0.60;0.10;;;20.70;1.00;;;;;;4991595;28;20473;-73
2023/07/21 14:23:36;;;;;;;0.60;0.10;;;;;;;;;;4991410;28;20498;-72
2023/07/21 14:26:04;;;;;;;0.70;0.30;;;20.60;1.00;;;;;;4991479;28;20505;-72
2023/07/21 14:28:32;;;;;;;0.60;0.20;;;20.40;1.00;;;;;;4991818;28;20497;-73
2023/07/21 14:31:01;;;;;;;0.60;0.20;;;20.40;1.00;;;;;;4995718;28;21000;-72
2023/07/21 14:33:30;;;;;;;0.60;0.10;;;20.40;1.00;;;;;;5010470;28;20806;-73
2023/07/21 14:35:58;;;;;;;0.60;0.10;;;20.30;1.00;;;;;;5016238;28;20494;-73
2023/07/21 14:38:26;;;;;;;0.60;0.10;;;20.30;1.00;;;;;;4996031;28;20483;-73
2023/07/21 14:40:54;;;;;;;0.60;0.10;;;20.40;1.00;;;;;;4992270;28;20989;-73
2023/07/21 14:43:23;;;;;;;0.60;0.10;;;20.40;1.00;;;;;;5005850;28;20523;-74
2023/07/21 14:45:53;;;;;;;0.90;0.57;;;;;;;;;;5002957;28;20433;-73
2023/07/21 14:48:22;;;;;;;0.60;0.20;;;20.30;1.00;;;;;;5010735;28;20964;-73
2023/07/21 14:50:51;;;;;;;0.60;0.10;;;20.30;1.00;;;;;;4993604;28;20477;-72
2023/07/21 14:53:19;;;;;;;0.60;0.10;;;;;;;;;;4991145;28;20476;-74
2023/07/21 14:55:47;;;;;;;0.60;0.10;;;20.20;1.00;;;;;;4992043;28;20481;-73
2023/07/21 14:58:16;;;;;;;0.60;0.20;;;20.20;1.00;;;;;;4997974;28;20452;-74
2023/07/21 15:00:44;;;;;;;0.80;0.20;;;;;;;;;;5013784;28;20452;-73
2023/07/21 15:03:12;;;;;;;0.60;0.20;;;20.20;1.00;;;;;;5014062;28;20534;-72
2023/07/21 15:05:41;;;;;;;0.60;0.10;;;20.10;1.00;;;;;;5015661;28;20554;-73
2023/07/21 15:08:11;;;;;;;0.60;0.20;;;20.20;1.00;;;;;;5012797;28;20949;-73
2023/07/21 15:10:39;;;;;;;0.60;0.10;;;20.20;1.00;;;;;;5007887;28;20530;-72
2023/07/21 15:13:07;;;;;;;0.60;0.20;;;20.30;1.00;;;;;;5030754;28;20447;-73
2023/07/21 15:15:35;;;;;;;0.60;0.20;;;17.20;1.00;;;;;;5008118;28;20452;-74
2023/07/21 15:18:03;;;;;;;0.60;0.10;;;;;;;;;;5005643;28;20472;-74
2023/07/21 15:20:32;;;;;;;0.60;0.10;;;;;;;;;;5015088;28;20507;-74
2023/07/21 15:23:00;;;;;;;0.60;0.20;;;20.60;1.00;;;;;;5014917;28;20584;-75
2023/07/21 15:25:29;;;;;;;0.60;0.10;;;20.70;1.00;;;;;;5020715;28;20527;-74
2023/07/21 15:27:58;;;;;;;0.60;0.10;;;;;;;;;;5007586;28;20543;-75
2023/07/21 15:30:26;;;;;;;0.60;0.10;;;;;;;;;;5020005;28;20467;-74
2023/07/21 15:32:55;;;;;;;0.60;0.13;;;21.00;1.00;;;;;;5032482;28;20460;-74
2023/07/21 15:35:22;;;;;;;0.60;0.13;;;21.20;1.00;;;;;;5014729;28;20456;-73
2023/07/21 15:37:50;;;;;;;0.60;0.10;;;21.30;1.00;;;;;;5015510;28;20449;-74
2023/07/21 15:40:18;;;;;;;0.60;0.10;;;21.40;1.00;;;;;;5007928;28;21347;-73
2023/07/21 15:42:48;;;;;;;0.60;0.10;;;21.50;1.00;;;;;;5012978;28;20522;-74
2023/07/21 15:45:16;;;;;;;0.60;0.10;;;24.70;1.00;;;;;;5010726;28;21012;-74
2023/07/21 15:47:44;;;;;;;0.60;0.20;;;21.50;1.00;;;;;;5014608;28;20447;-72
2023/07/21 15:50:14;;;;;;;0.60;0.10;;;21.60;1.00;;;;;;5005561;28;20489;-72
2023/07/21 15:52:43;;;;;;;0.60;0.10;;;21.60;1.00;;;;;;5003051;28;20462;-74
2023/07/21 15:55:11;;;;;;;0.60;0.10;;;21.70;1.00;;;;;;5002959;28;20512;-74
2023/07/21 15:57:40;;;;;;;7.20;1.27;;;;;;;;;;5014166;28;20801;-74
2023/07/21 16:00:14;;;;;;;0.60;0.20;;;21.70;1.00;;;;;;5015008;28;20441;-75
2023/07/21 16:02:43;;;;;;;0.60;0.10;;;21.80;1.00;;;;;;5028804;28;20494;-73
2023/07/21 16:05:12;;;;;;;0.60;0.13;;;21.90;1.00;;;;;;4994544;28;20451;-73
2023/07/21 16:07:40;;;;;;;0.60;0.10;;;22.00;1.00;;;;;;4994656;28;20453;-74
2023/07/21 16:10:09;;;;;;;0.60;0.10;;;22.00;1.00;;;;;;4996089;28;20451;-75
2023/07/21 16:12:38;;;;;;;0.60;0.10;;;;;;;;;;5023707;28;21020;-75
2023/07/21 16:15:07;;;;;;;0.60;0.20;;;;;;;;;;5019908;28;20481;-75
2023/07/21 16:17:36;;;;;;;0.60;0.10;;;22.70;1.00;;;;;;5013930;28;20874;-75
2023/07/21 16:20:06;;;;;;;0.70;0.20;;;23.00;1.00;;;;;;5013536;28;20532;-74
2023/07/21 16:22:37;;;;;;;0.70;0.10;;;;;;;;;;5015472;28;20477;-75
2023/07/21 16:25:06;;;;;;;0.70;0.10;;;23.70;1.00;;;;;;5022504;28;20916;-74
2023/07/21 16:27:34;;;;;;;0.80;0.30;;;;;;;;;;5032745;28;20461;-75
2023/07/21 16:30:02;;;;;;;0.70;0.10;;;;;;;;;;5029922;28;20560;-74
2023/07/21 16:32:31;;;;;;;2.10;0.87;;;;;;;;;;5020454;28;20496;-75
2023/07/21 16:35:02;;;;;;;0.70;0.17;;;;;;;;;;5020401;28;20442;-76
2023/07/21 16:37:30;;;;;;;0.70;0.30;;;24.90;1.00;;;;;;5033097;28;20488;-76
2023/07/21 16:40:00;;;;;;;2.67;2.47;;;25.10;1.00;;;;;;5027613;28;20540;-77
2023/07/21 16:42:29;;;;;;;0.70;0.10;;;;;;;;;;5025164;28;20462;-76
2023/07/21 16:45:01;;;;;;;0.70;0.17;;;;;;;;;;4995604;28;20477;-77
2023/07/21 16:47:29;;;;;;;0.70;0.10;;;24.90;1.00;;;;;;4994219;28;20460;-77
2023/07/21 16:49:58;;;;;;;0.70;0.10;;;;;;;;;;4995943;28;20482;-76
2023/07/21 16:52:28;;;;;;;0.70;0.30;;;25.10;1.00;;;;;;5018733;28;20522;-75
2023/07/21 16:54:56;;;;;;;0.70;0.10;;;25.20;1.00;;;;;;5008829;28;20496;-76
2023/07/21 16:57:24;;;;;;;0.70;0.20;;;;;;;;;;5016988;28;20834;-75
2023/07/21 16:59:55;;;;;;;0.70;0.10;;;25.40;1.00;;;;;;5025923;28;20890;-75
2023/07/21 17:02:24;;;;;;;0.70;0.20;;;25.20;1.00;;;;;;5023030;28;20477;-76
2023/07/21 17:04:53;;;;;;;0.70;0.20;;;25.00;1.00;;;;;;5025332;28;20492;-76
2023/07/21 17:07:22;;;;;;;0.70;0.10;;;;;;;;;;5000461;28;20462;-76
2023/07/21 17:09:51;;;;;;;0.70;0.10;;;24.80;1.00;;;;;;5013612;28;20465;-77
2023/07/21 17:12:20;;;;;;;0.70;0.10;;;;;;;;;;5010272;28;20585;-77
2023/07/21 17:14:48;;;;;;;0.70;0.20;;;24.50;1.00;;;;;;5015231;28;20450;-77
2023/07/21 17:17:18;;;;;;;0.70;0.20;;;24.40;1.00;;;;;;5021783;28;20455;-76
2023/07/21 17:19:46;;;;;;;0.70;0.10;;;;;;;;;;5021169;28;20858;-76
2023/07/21 17:22:14;;;;;;;0.70;0.10;;;;;;;;;;5022310;28;20505;-77
2023/07/21 17:24:44;;;;;;;0.70;0.20;;;;;;;;;;5020717;28;20617;-76
2023/07/21 17:27:14;;;;;;;0.70;0.20;;;24.60;1.00;;;;;;5004028;28;20544;-76
2023/07/21 17:29:42;;;;;;;0.70;0.20;;;;;;;;;;5012224;28;20454;-77